createdAt,value
2022-08-01T00:02:01.607Z,99967.73
2022-08-01T00:04:30.558Z,99963.44
2022-08-01T00:07:00.600Z,99966.23
2022-08-01T00:09:29.183Z,99967.30
2022-08-01T00:12:00.048Z,99961.75
2022-08-01T00:14:32.319Z,99960.14
2022-08-01T00:17:07.015Z,99958.22
2022-08-01T00:19:36.167Z,99956.14
2022-08-01T00:22:04.861Z,99954.75
2022-08-01T00:24:33.603Z,99949.73
2022-08-01T00:27:02.131Z,99947.34
2022-08-01T00:30:09.702Z,99947.92
2022-08-01T00:32:19.419Z,99942.11
2022-08-01T00:34:47.893Z,99943.33
2022-08-01T00:37:20.625Z,99942.84
2022-08-01T00:39:49.080Z,99936.68
2022-08-01T00:42:17.525Z,99940.02
2022-08-01T00:44:47.503Z,99938.59
2022-08-01T00:47:15.957Z,99941.77
2022-08-01T00:49:44.434Z,99939.94
2022-08-01T00:52:13.161Z,99939.89
2022-08-01T00:54:41.899Z,99939.57
2022-08-01T00:57:10.963Z,99938.59
2022-08-01T00:59:41.509Z,99939.31
2022-08-01T01:02:15.653Z,99942.11
2022-08-01T01:04:44.529Z,99943.70
2022-08-01T01:07:22.451Z,99949.27
2022-08-01T01:09:58.179Z,99948.14
2022-08-01T01:12:37.271Z,99949.95
2022-08-01T01:15:10.982Z,99950.91
2022-08-01T01:17:51.282Z,99952.38
2022-08-01T01:20:24.949Z,99946.23
2022-08-01T01:23:21.620Z,99945.37
2022-08-01T01:26:09.662Z,99941.14
2022-08-01T01:29:01.246Z,99943.79
2022-08-01T01:31:33.407Z,99942.77
2022-08-01T01:34:05.300Z,99942.13
2022-08-01T01:36:34.905Z,99946.91
2022-08-01T01:39:03.639Z,99949.70
2022-08-01T01:41:32.747Z,99947.04
2022-08-01T01:44:02.794Z,99946.05
2022-08-01T01:46:32.246Z,99945.54
2022-08-01T01:49:02.449Z,99945.40
2022-08-01T01:51:32.584Z,99948.11
2022-08-01T01:54:02.773Z,99951.08
2022-08-01T01:56:33.908Z,99950.24
2022-08-01T01:59:04.999Z,99950.15
2022-08-01T02:02:08.637Z,99948.45
2022-08-01T02:04:27.712Z,99945.10
2022-08-01T02:06:58.453Z,99943.83
2022-08-01T02:09:29.279Z,99944.81
2022-08-01T02:12:08.765Z,99943.34
2022-08-01T02:14:38.256Z,99941.88
2022-08-01T02:17:06.990Z,99939.89
2022-08-01T02:19:38.272Z,99938.27
2022-08-01T02:22:11.961Z,99933.66
2022-08-01T02:24:46.024Z,99934.10
2022-08-01T02:27:22.410Z,99933.53
2022-08-01T02:29:58.820Z,99938.43
2022-08-01T02:32:36.606Z,99938.16
2022-08-01T02:35:12.533Z,99939.64
2022-08-01T02:37:45.042Z,99941.32
2022-08-01T02:40:18.093Z,99939.55
2022-08-01T02:42:53.625Z,99943.64
2022-08-01T02:45:25.890Z,99943.95
2022-08-01T02:47:58.649Z,99942.66
2022-08-01T02:50:29.521Z,99942.80
2022-08-01T02:52:59.705Z,99945.71
2022-08-01T02:55:30.084Z,99946.88
2022-08-01T02:58:00.961Z,99949.82
2022-08-01T03:00:31.173Z,99951.55
2022-08-01T03:03:02.263Z,99951.13
2022-08-01T03:05:32.782Z,99952.47
2022-08-01T03:08:03.898Z,99953.08
2022-08-01T03:10:33.668Z,99956.19
2022-08-01T03:13:04.042Z,99960.16
2022-08-01T03:15:36.713Z,99963.50
2022-08-01T03:18:08.176Z,99956.70
2022-08-01T03:20:37.001Z,99962.27
2022-08-01T03:23:09.583Z,99959.63
2022-08-01T03:25:40.917Z,99956.64
2022-08-01T03:28:13.678Z,99959.02
2022-08-01T03:30:43.529Z,99958.95
2022-08-01T03:33:14.722Z,99958.69
2022-08-01T03:35:49.638Z,99964.23
2022-08-01T03:38:22.386Z,99965.97
2022-08-01T03:40:54.759Z,99967.11
2022-08-01T03:43:32.188Z,99970.92
2022-08-01T03:46:08.049Z,99973.10
2022-08-01T03:48:40.826Z,99973.54
2022-08-01T03:51:11.424Z,99973.85
2022-08-01T03:53:42.536Z,99974.15
2022-08-01T03:56:13.683Z,99978.58
2022-08-01T03:58:44.542Z,99980.38
2022-08-01T04:01:19.402Z,99981.46
2022-08-01T04:03:50.632Z,99985.13
2022-08-01T04:06:20.956Z,99985.69
2022-08-01T04:08:56.191Z,99988.02
2022-08-01T04:11:27.668Z,99990.17
2022-08-01T04:13:58.114Z,99990.52
2022-08-01T04:16:27.515Z,99992.55
2022-08-01T04:18:56.448Z,99993.83
2022-08-01T04:21:28.988Z,99998.81
2022-08-01T04:24:03.921Z,99999.37
2022-08-01T04:26:35.626Z,99993.41
2022-08-01T04:29:06.017Z,99993.85
2022-08-01T04:31:35.967Z,99995.63
2022-08-01T04:34:07.041Z,99994.67
2022-08-01T04:36:37.791Z,100001.25
2022-08-01T04:39:07.098Z,99999.11
2022-08-01T04:41:37.500Z,100004.79
2022-08-01T04:44:07.242Z,100004.30
2022-08-01T04:46:38.164Z,100005.00
2022-08-01T04:49:09.433Z,100007.40
2022-08-01T04:51:51.500Z,100006.38
2022-08-01T04:54:21.837Z,100006.88
2022-08-01T04:56:51.691Z,100005.60
2022-08-01T04:59:39.726Z,100007.44
2022-08-01T05:02:08.838Z,100006.56
2022-08-01T05:04:38.219Z,100006.52
2022-08-01T05:07:06.737Z,100008.89
2022-08-01T05:09:36.810Z,100010.89
2022-08-01T05:12:07.638Z,100016.00
2022-08-01T05:14:36.709Z,100018.70
2022-08-01T05:17:06.895Z,100019.98
2022-08-01T05:19:36.231Z,100022.46
2022-08-01T05:22:06.204Z,100023.60
2022-08-01T05:24:37.339Z,100031.27
2022-08-01T05:27:09.189Z,100026.80
2022-08-01T05:29:44.348Z,100023.35
2022-08-01T05:32:13.460Z,100023.57
2022-08-01T05:34:41.849Z,100021.51
2022-08-01T05:37:10.570Z,100025.20
2022-08-01T05:39:39.040Z,100029.10
2022-08-01T05:42:07.969Z,100032.35
2022-08-01T05:44:36.732Z,100030.73
2022-08-01T05:47:05.449Z,100032.45
2022-08-01T05:49:33.894Z,100030.70
2022-08-01T05:52:03.081Z,100035.71
2022-08-01T05:54:32.196Z,100030.77
2022-08-01T05:57:02.030Z,100032.13
2022-08-01T05:59:30.975Z,100032.48
2022-08-01T06:01:59.543Z,100033.23
2022-08-01T06:04:28.132Z,100030.08
2022-08-01T06:06:56.503Z,100032.95
2022-08-01T06:09:24.906Z,100033.65
2022-08-01T06:11:53.343Z,100036.60
2022-08-01T06:14:21.764Z,100037.10
2022-08-01T06:16:50.140Z,100031.41
2022-08-01T06:19:19.427Z,100030.35
2022-08-01T06:21:47.891Z,100028.98
2022-08-01T06:24:16.371Z,100030.11
2022-08-01T06:26:44.823Z,100034.36
2022-08-01T06:29:13.930Z,100032.33
2022-08-01T06:31:42.630Z,100031.93
2022-08-01T06:34:11.014Z,100034.00
2022-08-01T06:36:39.711Z,100038.70
2022-08-01T06:39:08.329Z,100043.06
2022-08-01T06:41:36.967Z,100044.09
2022-08-01T06:44:06.449Z,100043.49
2022-08-01T06:46:35.188Z,100042.35
2022-08-01T06:49:05.212Z,100040.45
2022-08-01T06:51:33.936Z,100038.42
2022-08-01T06:54:02.487Z,100040.05
2022-08-01T06:56:31.140Z,100039.06
2022-08-01T06:59:01.326Z,100041.38
2022-08-01T07:01:31.043Z,100040.08
2022-08-01T07:04:04.929Z,100037.80
2022-08-01T07:06:34.741Z,100034.39
2022-08-01T07:09:08.433Z,100031.07
2022-08-01T07:11:40.799Z,100033.76
2022-08-01T07:14:09.551Z,100036.02
2022-08-01T07:16:38.144Z,100040.40
2022-08-01T07:19:06.787Z,100035.47
2022-08-01T07:21:39.754Z,100038.56
2022-08-01T07:24:14.418Z,100036.09
2022-08-01T07:26:52.679Z,100036.03
2022-08-01T07:29:24.612Z,100035.70
2022-08-01T07:31:54.316Z,100029.27
2022-08-01T07:34:24.103Z,100028.40
2022-08-01T07:36:53.718Z,100024.85
2022-08-01T07:39:22.553Z,100022.67
2022-08-01T07:42:13.370Z,100021.25
2022-08-01T07:44:39.958Z,100023.33
2022-08-01T07:47:08.616Z,100027.76
2022-08-01T07:49:40.240Z,100026.29
2022-08-01T07:52:10.526Z,100023.31
2022-08-01T07:54:39.365Z,100024.21
2022-08-01T07:57:08.763Z,100021.67
2022-08-01T07:59:37.463Z,100017.27
2022-08-01T08:02:06.738Z,100018.88
2022-08-01T08:04:35.924Z,100021.23
2022-08-01T08:07:04.818Z,100023.90
2022-08-01T08:09:37.332Z,100020.31
2022-08-01T08:12:08.461Z,100025.84
2022-08-01T08:14:38.040Z,100024.25
2022-08-01T08:17:07.170Z,100026.77
2022-08-01T08:19:39.209Z,100028.23
2022-08-01T08:22:10.277Z,100027.10
2022-08-01T08:24:46.533Z,100033.05
2022-08-01T08:27:16.078Z,100030.98
2022-08-01T08:29:45.193Z,100028.94
2022-08-01T08:32:13.911Z,100030.63
2022-08-01T08:34:43.081Z,100032.08
2022-08-01T08:37:12.035Z,100032.80
2022-08-01T08:39:42.472Z,100032.67
2022-08-01T08:42:12.161Z,100038.27
2022-08-01T08:44:43.327Z,100041.63
2022-08-01T08:47:19.608Z,100044.20
2022-08-01T08:49:51.065Z,100045.45
2022-08-01T08:52:21.709Z,100043.34
2022-08-01T08:54:52.406Z,100045.07
2022-08-01T08:57:22.962Z,100046.75
2022-08-01T08:59:53.183Z,100045.82
2022-08-01T09:02:22.403Z,100045.56
2022-08-01T09:04:51.705Z,100052.97
2022-08-01T09:07:20.320Z,100052.43
2022-08-01T09:09:49.680Z,100051.86
2022-08-01T09:12:22.508Z,100057.40
2022-08-01T09:14:53.827Z,100057.58
2022-08-01T09:17:22.699Z,100056.64
2022-08-01T09:19:54.454Z,100058.52
2022-08-01T09:22:25.634Z,100058.23
2022-08-01T09:25:02.852Z,100056.61
2022-08-01T09:27:31.872Z,100056.95
2022-08-01T09:30:11.543Z,100063.86
2022-08-01T09:32:55.757Z,100068.27
2022-08-01T09:35:31.821Z,100071.30
2022-08-01T09:38:20.345Z,100066.46
2022-08-01T09:40:51.290Z,100063.87
2022-08-01T09:43:22.359Z,100064.49
2022-08-01T09:45:53.410Z,100065.21
2022-08-01T09:48:28.512Z,100063.22
2022-08-01T09:51:03.968Z,100062.09
2022-08-01T09:53:52.522Z,100061.27
2022-08-01T09:56:25.802Z,100060.22
2022-08-01T09:59:00.356Z,100062.21
2022-08-01T10:01:43.436Z,100062.75
2022-08-01T10:04:13.697Z,100061.29
2022-08-01T10:06:46.106Z,100060.36
2022-08-01T10:09:15.477Z,100064.88
2022-08-01T10:11:45.555Z,100062.88
2022-08-01T10:14:18.198Z,100065.62
2022-08-01T10:16:53.638Z,100061.66
2022-08-01T10:19:28.885Z,100060.35
2022-08-01T10:22:00.189Z,100061.45
2022-08-01T10:24:31.190Z,100055.09
2022-08-01T10:27:12.655Z,100054.30
2022-08-01T10:30:05.648Z,100053.81
2022-08-01T10:32:39.740Z,100053.19
2022-08-01T10:35:15.716Z,100051.90
2022-08-01T10:37:52.151Z,100046.35
2022-08-01T10:40:31.080Z,100048.68
2022-08-01T10:43:01.188Z,100051.36
2022-08-01T10:45:30.352Z,100051.17
2022-08-01T10:48:06.876Z,100050.63
2022-08-01T10:50:38.672Z,100055.09
2022-08-01T10:53:23.292Z,100049.10
2022-08-01T10:56:03.932Z,100045.81
2022-08-01T10:58:42.760Z,100046.56
2022-08-01T11:01:21.811Z,100043.44
2022-08-01T11:04:13.922Z,100045.11
2022-08-01T11:07:05.973Z,100048.10
2022-08-01T11:09:42.676Z,100044.90
2022-08-01T11:12:23.485Z,100037.90
2022-08-01T11:15:31.024Z,100038.38
2022-08-01T11:18:27.404Z,100038.32
2022-08-01T11:21:57.764Z,100032.17
2022-08-01T11:23:53.135Z,100034.77
2022-08-01T11:26:29.793Z,100035.55
2022-08-01T11:29:21.581Z,100033.86
2022-08-01T11:31:52.984Z,100033.17
2022-08-01T11:34:54.637Z,100033.88
2022-08-01T11:37:30.449Z,100036.92
2022-08-01T11:40:20.181Z,100034.71
2022-08-01T11:43:12.175Z,100037.12
2022-08-01T11:45:53.181Z,100038.58
2022-08-01T11:48:27.557Z,100034.91
2022-08-01T11:51:02.203Z,100039.54
2022-08-01T11:53:33.755Z,100037.17
2022-08-01T11:56:02.623Z,100033.02
2022-08-01T11:58:31.509Z,100033.46
2022-08-01T12:01:00.531Z,100035.85
2022-08-01T12:03:33.564Z,100031.85
2022-08-01T12:06:02.926Z,100036.75
2022-08-01T12:08:34.884Z,100036.20
2022-08-01T12:11:06.707Z,100039.60
2022-08-01T12:13:43.478Z,100037.20
2022-08-01T12:16:12.645Z,100037.06
2022-08-01T12:18:42.667Z,100035.73
2022-08-01T12:21:11.867Z,100030.21
2022-08-01T12:23:40.435Z,100035.22
2022-08-01T12:26:28.399Z,100032.58
2022-08-01T12:28:58.576Z,100035.81
2022-08-01T12:31:34.493Z,100034.20
2022-08-01T12:34:28.410Z,100035.38
2022-08-01T12:36:59.557Z,100034.71
2022-08-01T12:39:34.281Z,100031.38
2022-08-01T12:42:02.436Z,100033.52
2022-08-01T12:44:31.982Z,100027.64
2022-08-01T12:47:01.548Z,100026.42
2022-08-01T12:49:30.616Z,100024.94
2022-08-01T12:51:59.552Z,100027.42
2022-08-01T12:54:28.966Z,100023.18
2022-08-01T12:57:00.119Z,100025.59
2022-08-01T12:59:29.990Z,100030.11
2022-08-01T13:02:09.493Z,100029.13
2022-08-01T13:04:52.339Z,100028.13
2022-08-01T13:07:21.090Z,100024.94
2022-08-01T13:09:52.658Z,100026.06
2022-08-01T13:12:21.371Z,100018.94
2022-08-01T13:14:50.084Z,100016.45
2022-08-01T13:17:32.860Z,100022.66
2022-08-01T13:20:01.635Z,100023.08
2022-08-01T13:22:37.185Z,100021.65
2022-08-01T13:25:16.795Z,100022.96
2022-08-01T13:27:53.931Z,100018.05
2022-08-01T13:30:37.410Z,100016.21
2022-08-01T13:33:06.081Z,100015.38
2022-08-01T13:35:34.854Z,100013.99
2022-08-01T13:38:03.972Z,100017.58
2022-08-01T13:40:32.940Z,100018.84
2022-08-01T13:43:01.419Z,100018.57
2022-08-01T13:45:30.603Z,100018.36
2022-08-01T13:48:03.836Z,100017.16
2022-08-01T13:50:41.727Z,100018.66
2022-08-01T13:53:10.359Z,100018.96
2022-08-01T13:55:39.753Z,100022.35
2022-08-01T13:58:08.283Z,100023.57
2022-08-01T14:00:37.532Z,100025.19
2022-08-01T14:03:06.583Z,100023.02
2022-08-01T14:05:36.047Z,100021.39
2022-08-01T14:08:06.532Z,100025.70
2022-08-01T14:10:36.214Z,100028.16
2022-08-01T14:13:04.826Z,100026.14
2022-08-01T14:15:37.311Z,100029.36
2022-08-01T14:18:11.628Z,100027.41
2022-08-01T14:20:40.834Z,100029.96
2022-08-01T14:23:10.369Z,100031.21
2022-08-01T14:26:02.865Z,100034.39
2022-08-01T14:28:30.700Z,100034.30
2022-08-01T14:31:00.108Z,100037.38
2022-08-01T14:33:29.444Z,100037.70
2022-08-01T14:36:06.087Z,100039.88
2022-08-01T14:38:46.851Z,100042.73
2022-08-01T14:41:16.187Z,100040.85
2022-08-01T14:43:45.666Z,100047.55
2022-08-01T14:46:14.486Z,100044.55
2022-08-01T14:48:43.341Z,100043.31
2022-08-01T14:51:12.772Z,100048.70
2022-08-01T14:53:46.566Z,100045.08
2022-08-01T14:56:15.829Z,100047.73
2022-08-01T14:58:44.718Z,100051.06
2022-08-01T15:01:13.685Z,100051.52
2022-08-01T15:03:42.584Z,100050.50
2022-08-01T15:06:13.045Z,100050.57
2022-08-01T15:08:41.975Z,100050.64
2022-08-01T15:11:11.440Z,100050.59
2022-08-01T15:13:42.600Z,100048.05
2022-08-01T15:16:12.164Z,100052.79
2022-08-01T15:18:42.484Z,100053.02
2022-08-01T15:21:29.398Z,100055.59
2022-08-01T15:24:07.186Z,100056.02
2022-08-01T15:26:36.139Z,100054.30
2022-08-01T15:29:05.126Z,100052.65
2022-08-01T15:31:34.036Z,100054.10
2022-08-01T15:34:02.922Z,100050.89
2022-08-01T15:36:35.421Z,100054.02
2022-08-01T15:39:04.694Z,100053.60
2022-08-01T15:41:33.582Z,100052.66
2022-08-01T15:44:02.626Z,100051.18
2022-08-01T15:46:31.538Z,100046.31
2022-08-01T15:49:04.163Z,100044.70
2022-08-01T15:51:34.030Z,100044.85
2022-08-01T15:54:03.350Z,100047.77
2022-08-01T15:56:33.547Z,100046.30
2022-08-01T15:59:05.898Z,100047.79
2022-08-01T16:01:34.814Z,100045.04
2022-08-01T16:04:04.225Z,100052.80
2022-08-01T16:06:33.394Z,100055.73
2022-08-01T16:09:02.673Z,100056.40
2022-08-01T16:11:31.609Z,100058.61
2022-08-01T16:14:00.758Z,100058.10
2022-08-01T16:16:29.735Z,100060.48
2022-08-01T16:18:58.413Z,100059.56
2022-08-01T16:21:27.255Z,100063.65
2022-08-01T16:23:55.833Z,100063.75
2022-08-01T16:26:27.949Z,100066.41
2022-08-01T16:28:58.133Z,100068.56
2022-08-01T16:31:38.205Z,100070.59
2022-08-01T16:34:22.947Z,100073.88
2022-08-01T16:36:52.801Z,100073.58
2022-08-01T16:39:23.580Z,100072.04
2022-08-01T16:41:55.171Z,100071.36
2022-08-01T16:44:33.379Z,100069.23
2022-08-01T16:47:04.249Z,100071.58
2022-08-01T16:49:33.429Z,100072.47
2022-08-01T16:52:02.303Z,100071.13
2022-08-01T16:54:31.605Z,100067.33
2022-08-01T16:57:08.432Z,100068.17
2022-08-01T16:59:40.868Z,100070.80
2022-08-01T17:02:11.626Z,100066.68
2022-08-01T17:04:40.249Z,100070.15
2022-08-01T17:07:09.176Z,100076.06
2022-08-01T17:09:43.021Z,100078.40
2022-08-01T17:12:12.638Z,100080.17
2022-08-01T17:14:43.050Z,100080.44
2022-08-01T17:17:20.564Z,100079.98
2022-08-01T17:19:49.946Z,100076.93
2022-08-01T17:22:18.930Z,100079.60
2022-08-01T17:24:47.470Z,100078.84
2022-08-01T17:27:16.285Z,100083.90
2022-08-01T17:29:45.060Z,100083.39
2022-08-01T17:32:14.370Z,100081.50
2022-08-01T17:34:44.871Z,100085.02
2022-08-01T17:37:13.558Z,100085.53
2022-08-01T17:39:42.848Z,100084.15
2022-08-01T17:42:14.139Z,100080.64
2022-08-01T17:44:46.072Z,100091.80
2022-08-01T17:47:40.877Z,100091.96
2022-08-01T17:50:10.053Z,100091.67
2022-08-01T17:52:39.300Z,100097.39
2022-08-01T17:55:54.410Z,100100.10
2022-08-01T17:58:04.165Z,100099.59
2022-08-01T18:00:33.781Z,100098.83
2022-08-01T18:03:02.660Z,100098.29
2022-08-01T18:05:37.801Z,100099.25
2022-08-01T18:08:06.782Z,100098.77
2022-08-01T18:10:35.367Z,100100.40
2022-08-01T18:13:12.919Z,100100.84
2022-08-01T18:15:43.198Z,100106.83
2022-08-01T18:18:13.541Z,100103.80
2022-08-01T18:20:42.332Z,100106.45
2022-08-01T18:23:11.368Z,100112.11
2022-08-01T18:25:40.973Z,100112.89
2022-08-01T18:28:22.736Z,100108.78
2022-08-01T18:30:59.069Z,100113.05
2022-08-01T18:33:27.936Z,100111.80
2022-08-01T18:36:01.898Z,100117.61
2022-08-01T18:38:37.383Z,100120.30
2022-08-01T18:41:13.587Z,100121.38
2022-08-01T18:43:42.023Z,100123.86
2022-08-01T18:46:10.417Z,100124.22
2022-08-01T18:48:39.107Z,100128.58
2022-08-01T18:51:08.482Z,100128.81
2022-08-01T18:53:39.170Z,100130.77
2022-08-01T18:56:11.689Z,100131.68
2022-08-01T18:58:43.520Z,100142.34
2022-08-01T19:01:13.457Z,100142.14
2022-08-01T19:03:42.924Z,100144.23
2022-08-01T19:06:11.875Z,100147.39
2022-08-01T19:08:41.012Z,100151.56
2022-08-01T19:11:09.576Z,100149.63
2022-08-01T19:13:38.350Z,100148.36
2022-08-01T19:16:07.103Z,100147.27
2022-08-01T19:18:36.139Z,100147.24
2022-08-01T19:21:06.401Z,100146.20
2022-08-01T19:23:53.882Z,100151.82
2022-08-01T19:26:25.741Z,100153.08
2022-08-01T19:28:57.834Z,100153.09
2022-08-01T19:31:34.107Z,100157.30
2022-08-01T19:34:05.997Z,100159.42
2022-08-01T19:36:37.758Z,100162.02
2022-08-01T19:39:09.666Z,100164.31
2022-08-01T19:41:40.234Z,100167.61
2022-08-01T19:44:13.019Z,100169.77
2022-08-01T19:46:44.466Z,100167.94
2022-08-01T19:49:15.377Z,100166.94
2022-08-01T19:51:49.080Z,100169.42
2022-08-01T19:54:20.267Z,100162.91
2022-08-01T19:56:50.840Z,100162.13
2022-08-01T19:59:25.109Z,100163.75
2022-08-01T20:01:54.547Z,100162.99
2022-08-01T20:04:24.289Z,100164.98
2022-08-01T20:06:54.351Z,100161.26
2022-08-01T20:09:24.072Z,100165.15
2022-08-01T20:11:55.029Z,100165.48
2022-08-01T20:14:25.691Z,100167.08
2022-08-01T20:17:08.187Z,100172.58
2022-08-01T20:19:45.234Z,100170.06
2022-08-01T20:22:14.998Z,100172.65
2022-08-01T20:24:45.520Z,100174.09
2022-08-01T20:27:15.513Z,100174.63
2022-08-01T20:29:45.861Z,100173.54
2022-08-01T20:32:25.937Z,100170.99
2022-08-01T20:34:55.265Z,100168.54
2022-08-01T20:38:06.283Z,100171.80
2022-08-01T20:40:14.519Z,100174.52
2022-08-01T20:42:44.516Z,100172.63
2022-08-01T20:45:18.372Z,100176.27
2022-08-01T20:47:53.981Z,100176.70
2022-08-01T20:50:52.946Z,100172.71
2022-08-01T20:53:23.124Z,100174.19
2022-08-01T20:55:59.857Z,100173.73
2022-08-01T20:58:36.989Z,100175.29
2022-08-01T21:01:09.587Z,100172.02
2022-08-01T21:03:46.483Z,100176.57
2022-08-01T21:06:22.033Z,100176.23
2022-08-01T21:08:53.464Z,100180.05
2022-08-01T21:11:25.188Z,100182.84
2022-08-01T21:13:56.021Z,100184.39
2022-08-01T21:16:32.078Z,100185.87
2022-08-01T21:19:23.860Z,100185.61
2022-08-01T21:22:10.383Z,100182.79
2022-08-01T21:24:46.526Z,100181.54
2022-08-01T21:27:33.381Z,100180.36
2022-08-01T21:30:05.063Z,100184.49
2022-08-01T21:32:35.304Z,100189.51
2022-08-01T21:35:15.968Z,100185.83
2022-08-01T21:37:52.323Z,100193.23
2022-08-01T21:40:24.555Z,100195.73
2022-08-01T21:42:55.064Z,100194.94
2022-08-01T21:45:26.685Z,100196.06
2022-08-01T21:47:56.606Z,100195.34
2022-08-01T21:50:26.741Z,100193.08
2022-08-01T21:53:11.573Z,100194.19
2022-08-01T21:55:59.725Z,100187.73
2022-08-01T21:58:35.013Z,100192.42
2022-08-01T22:01:51.393Z,100188.13
2022-08-01T22:04:34.334Z,100189.26
2022-08-01T22:07:05.948Z,100189.15
2022-08-01T22:09:37.288Z,100192.33
2022-08-01T22:12:08.031Z,100187.58
2022-08-01T22:14:42.822Z,100190.77
2022-08-01T22:17:17.369Z,100188.66
2022-08-01T22:19:49.610Z,100189.27
2022-08-01T22:22:32.329Z,100194.24
2022-08-01T22:25:12.913Z,100194.83
2022-08-01T22:28:07.818Z,100193.17
2022-08-01T22:30:32.078Z,100195.07
2022-08-01T22:33:07.304Z,100199.73
2022-08-01T22:35:46.848Z,100201.58
2022-08-01T22:38:17.948Z,100202.38
2022-08-01T22:40:50.405Z,100204.70
2022-08-01T22:43:38.682Z,100206.66
2022-08-01T22:46:22.203Z,100206.95
2022-08-01T22:48:56.696Z,100208.77
2022-08-01T22:51:44.134Z,100206.80
2022-08-01T22:54:29.980Z,100209.36
2022-08-01T22:57:07.306Z,100206.73
2022-08-01T22:59:49.089Z,100209.09
2022-08-01T23:02:19.314Z,100207.77
2022-08-01T23:04:50.101Z,100209.58
2022-08-01T23:07:23.620Z,100207.77
2022-08-01T23:09:55.256Z,100213.75
2022-08-01T23:12:30.687Z,100213.61
2022-08-01T23:15:00.861Z,100215.28
2022-08-01T23:17:31.431Z,100214.98
2022-08-01T23:20:02.270Z,100215.02
2022-08-01T23:22:34.613Z,100215.23
2022-08-01T23:25:06.565Z,100212.17
2022-08-01T23:27:57.857Z,100215.55
2022-08-01T23:30:30.035Z,100210.45
2022-08-01T23:32:59.306Z,100213.45
2022-08-01T23:35:36.898Z,100210.02
2022-08-01T23:38:09.616Z,100214.90
2022-08-01T23:40:39.473Z,100213.17
2022-08-01T23:43:08.310Z,100212.63
2022-08-01T23:46:02.252Z,100211.95
2022-08-01T23:48:34.366Z,100213.33
2022-08-01T23:51:03.574Z,100216.84
2022-08-01T23:53:33.392Z,100220.31
2022-08-01T23:56:04.531Z,100221.02
2022-08-01T23:58:34.306Z,100223.48
